sensor_id;sensor_type;location;lat;lon;timestamp;pressure;altitude;pressure_sealevel;temperature
51693;BMP280;37777;53.066;21.638;2024-01-16T00:00:16;98140.91;;;-2.58
51693;BMP280;37777;53.066;21.638;2024-01-16T00:07:18;98144.88;;;-2.69
51693;BMP280;37777;53.066;21.638;2024-01-16T00:14:19;98170.06;;;-2.72
51693;BMP280;37777;53.066;21.638;2024-01-16T00:21:21;98168.81;;;-2.74
51693;BMP280;37777;53.066;21.638;2024-01-16T00:28:22;98201.94;;;-2.63
51693;BMP280;37777;53.066;21.638;2024-01-16T00:35:23;98213.50;;;-2.73
51693;BMP280;37777;53.066;21.638;2024-01-16T00:42:25;98229.69;;;-2.74
51693;BMP280;37777;53.066;21.638;2024-01-16T00:49:27;98244.31;;;-2.77
51693;BMP280;37777;53.066;21.638;2024-01-16T00:56:29;98248.94;;;-2.83
51693;BMP280;37777;53.066;21.638;2024-01-16T01:03:33;98267.97;;;-2.80
51693;BMP280;37777;53.066;21.638;2024-01-16T01:10:35;98269.81;;;-2.81
51693;BMP280;37777;53.066;21.638;2024-01-16T01:17:36;98279.63;;;-2.82
51693;BMP280;37777;53.066;21.638;2024-01-16T01:24:38;98297.66;;;-2.84
51693;BMP280;37777;53.066;21.638;2024-01-16T01:31:39;98323.88;;;-2.96
51693;BMP280;37777;53.066;21.638;2024-01-16T01:38:41;98346.63;;;-2.95
51693;BMP280;37777;53.066;21.638;2024-01-16T01:45:42;98348.06;;;-3.03
51693;BMP280;37777;53.066;21.638;2024-01-16T01:52:44;98363.47;;;-3.19
51693;BMP280;37777;53.066;21.638;2024-01-16T01:59:46;98367.94;;;-3.47
51693;BMP280;37777;53.066;21.638;2024-01-16T02:06:48;98368.34;;;-3.54
51693;BMP280;37777;53.066;21.638;2024-01-16T02:13:49;98396.56;;;-3.68
51693;BMP280;37777;53.066;21.638;2024-01-16T02:20:51;98430.78;;;-3.77
51693;BMP280;37777;53.066;21.638;2024-01-16T02:27:53;98436.03;;;-3.91
51693;BMP280;37777;53.066;21.638;2024-01-16T02:34:54;98454.38;;;-4.00
51693;BMP280;37777;53.066;21.638;2024-01-16T02:41:56;98471.91;;;-4.09
51693;BMP280;37777;53.066;21.638;2024-01-16T02:48:57;98480.72;;;-4.14
51693;BMP280;37777;53.066;21.638;2024-01-16T02:55:59;98489.81;;;-4.25
51693;BMP280;37777;53.066;21.638;2024-01-16T03:03:01;98510.28;;;-4.36
51693;BMP280;37777;53.066;21.638;2024-01-16T03:10:03;98506.66;;;-4.45
51693;BMP280;37777;53.066;21.638;2024-01-16T03:17:04;98516.47;;;-4.46
51693;BMP280;37777;53.066;21.638;2024-01-16T03:24:06;98536.81;;;-4.51
51693;BMP280;37777;53.066;21.638;2024-01-16T03:31:08;98539.88;;;-4.63
51693;BMP280;37777;53.066;21.638;2024-01-16T03:38:09;98562.81;;;-4.64
51693;BMP280;37777;53.066;21.638;2024-01-16T03:45:11;98563.91;;;-4.70
51693;BMP280;37777;53.066;21.638;2024-01-16T03:52:16;98579.56;;;-4.73
51693;BMP280;37777;53.066;21.638;2024-01-16T03:59:18;98588.88;;;-4.86
51693;BMP280;37777;53.066;21.638;2024-01-16T04:06:19;98610.25;;;-4.88
51693;BMP280;37777;53.066;21.638;2024-01-16T04:13:21;98616.69;;;-4.99
51693;BMP280;37777;53.066;21.638;2024-01-16T04:20:22;98626.19;;;-5.03
51693;BMP280;37777;53.066;21.638;2024-01-16T04:27:24;98631.53;;;-5.14
51693;BMP280;37777;53.066;21.638;2024-01-16T04:34:26;98655.25;;;-5.14
51693;BMP280;37777;53.066;21.638;2024-01-16T04:41:28;98656.63;;;-5.21
51693;BMP280;37777;53.066;21.638;2024-01-16T04:48:29;98663.78;;;-5.27
51693;BMP280;37777;53.066;21.638;2024-01-16T04:55:31;98663.84;;;-5.43
51693;BMP280;37777;53.066;21.638;2024-01-16T05:02:33;98673.31;;;-5.42
51693;BMP280;37777;53.066;21.638;2024-01-16T05:09:35;98679.16;;;-5.50
51693;BMP280;37777;53.066;21.638;2024-01-16T05:16:37;98694.19;;;-5.55
51693;BMP280;37777;53.066;21.638;2024-01-16T05:23:38;98719.25;;;-5.63
51693;BMP280;37777;53.066;21.638;2024-01-16T05:30:40;98726.66;;;-5.76
51693;BMP280;37777;53.066;21.638;2024-01-16T05:37:41;98737.19;;;-5.70
51693;BMP280;37777;53.066;21.638;2024-01-16T05:44:42;98748.53;;;-5.80
51693;BMP280;37777;53.066;21.638;2024-01-16T05:51:44;98752.75;;;-5.89
51693;BMP280;37777;53.066;21.638;2024-01-16T05:58:45;98765.44;;;-5.97
51693;BMP280;37777;53.066;21.638;2024-01-16T06:05:47;98779.34;;;-6.01
51693;BMP280;37777;53.066;21.638;2024-01-16T06:12:48;98795.16;;;-6.01
51693;BMP280;37777;53.066;21.638;2024-01-16T06:19:50;98806.50;;;-6.06
51693;BMP280;37777;53.066;21.638;2024-01-16T06:26:52;98826.25;;;-6.09
51693;BMP280;37777;53.066;21.638;2024-01-16T06:33:53;98840.97;;;-6.18
51693;BMP280;37777;53.066;21.638;2024-01-16T06:40:55;98845.72;;;-6.25
51693;BMP280;37777;53.066;21.638;2024-01-16T06:47:56;98865.97;;;-6.26
51693;BMP280;37777;53.066;21.638;2024-01-16T06:54:58;98873.59;;;-6.29
51693;BMP280;37777;53.066;21.638;2024-01-16T07:01:59;98876.22;;;-6.40
51693;BMP280;37777;53.066;21.638;2024-01-16T07:09:01;98888.28;;;-6.44
51693;BMP280;37777;53.066;21.638;2024-01-16T07:16:02;98898.31;;;-6.35
51693;BMP280;37777;53.066;21.638;2024-01-16T07:23:04;98920.97;;;-6.34
51693;BMP280;37777;53.066;21.638;2024-01-16T07:30:06;98928.91;;;-6.24
51693;BMP280;37777;53.066;21.638;2024-01-16T07:37:08;98940.75;;;-6.16
51693;BMP280;37777;53.066;21.638;2024-01-16T07:44:09;98961.09;;;-6.07
51693;BMP280;37777;53.066;21.638;2024-01-16T07:51:11;98959.78;;;-6.04
51693;BMP280;37777;53.066;21.638;2024-01-16T07:58:13;98974.84;;;-5.89
51693;BMP280;37777;53.066;21.638;2024-01-16T08:05:15;98976.72;;;-5.79
51693;BMP280;37777;53.066;21.638;2024-01-16T08:12:17;98990.94;;;-5.70
51693;BMP280;37777;53.066;21.638;2024-01-16T08:19:18;99003.34;;;-5.55
51693;BMP280;37777;53.066;21.638;2024-01-16T08:26:20;99023.16;;;-5.42
51693;BMP280;37777;53.066;21.638;2024-01-16T08:33:21;99020.81;;;-5.33
51693;BMP280;37777;53.066;21.638;2024-01-16T08:40:37;99032.94;;;-5.22
51693;BMP280;37777;53.066;21.638;2024-01-16T08:47:38;99036.63;;;-5.23
51693;BMP280;37777;53.066;21.638;2024-01-16T08:54:40;99044.28;;;-5.21
51693;BMP280;37777;53.066;21.638;2024-01-16T09:01:41;99050.88;;;-5.14
51693;BMP280;37777;53.066;21.638;2024-01-16T09:08:43;99053.00;;;-5.05
51693;BMP280;37777;53.066;21.638;2024-01-16T09:15:48;99049.81;;;-5.02
51693;BMP280;37777;53.066;21.638;2024-01-16T09:22:50;99081.25;;;-4.96
51693;BMP280;37777;53.066;21.638;2024-01-16T09:29:51;99075.97;;;-4.80
51693;BMP280;37777;53.066;21.638;2024-01-16T09:36:53;99077.81;;;-4.75
51693;BMP280;37777;53.066;21.638;2024-01-16T09:43:54;99089.13;;;-4.65
51693;BMP280;37777;53.066;21.638;2024-01-16T09:50:56;99105.53;;;-4.57
51693;BMP280;37777;53.066;21.638;2024-01-16T09:57:58;99120.00;;;-4.45
51693;BMP280;37777;53.066;21.638;2024-01-16T10:05:00;99118.97;;;-4.38
51693;BMP280;37777;53.066;21.638;2024-01-16T10:12:02;99133.97;;;-4.34
51693;BMP280;37777;53.066;21.638;2024-01-16T10:19:04;99159.63;;;-4.19
51693;BMP280;37777;53.066;21.638;2024-01-16T10:26:07;99172.81;;;-4.19
51693;BMP280;37777;53.066;21.638;2024-01-16T10:33:15;99184.44;;;-4.09
51693;BMP280;37777;53.066;21.638;2024-01-16T10:40:25;99196.06;;;-4.10
51693;BMP280;37777;53.066;21.638;2024-01-16T10:47:29;99205.53;;;-3.99
51693;BMP280;37777;53.066;21.638;2024-01-16T10:54:32;99204.50;;;-3.98
51693;BMP280;37777;53.066;21.638;2024-01-16T11:01:34;99209.78;;;-3.98
51693;BMP280;37777;53.066;21.638;2024-01-16T11:08:37;99235.13;;;-3.82
51693;BMP280;37777;53.066;21.638;2024-01-16T11:15:40;99231.66;;;-3.72
51693;BMP280;37777;53.066;21.638;2024-01-16T11:22:43;99240.38;;;-3.76
51693;BMP280;37777;53.066;21.638;2024-01-16T11:29:49;99250.94;;;-3.71
51693;BMP280;37777;53.066;21.638;2024-01-16T11:36:52;99270.75;;;-3.64
51693;BMP280;37777;53.066;21.638;2024-01-16T11:43:57;99252.53;;;-3.65
51693;BMP280;37777;53.066;21.638;2024-01-16T11:51:00;99275.00;;;-3.68
51693;BMP280;37777;53.066;21.638;2024-01-16T12:05:58;99298.28;;;-3.70
51693;BMP280;37777;53.066;21.638;2024-01-16T12:13:00;99291.13;;;-3.59
51693;BMP280;37777;53.066;21.638;2024-01-16T12:20:32;99307.50;;;-3.52
51693;BMP280;37777;53.066;21.638;2024-01-16T12:27:34;99309.88;;;-3.45
51693;BMP280;37777;53.066;21.638;2024-01-16T12:34:47;99325.75;;;-3.45
51693;BMP280;37777;53.066;21.638;2024-01-16T12:41:49;99330.75;;;-3.38
51693;BMP280;37777;53.066;21.638;2024-01-16T12:48:51;99341.31;;;-3.38
51693;BMP280;37777;53.066;21.638;2024-01-16T12:56:03;99353.72;;;-3.23
51693;BMP280;37777;53.066;21.638;2024-01-16T13:03:06;99355.59;;;-3.39
51693;BMP280;37777;53.066;21.638;2024-01-16T13:10:09;99370.97;;;-3.57
51693;BMP280;37777;53.066;21.638;2024-01-16T13:17:10;99382.63;;;-3.63
51693;BMP280;37777;53.066;21.638;2024-01-16T13:24:12;99386.31;;;-3.64
51693;BMP280;37777;53.066;21.638;2024-01-16T13:31:18;99406.69;;;-3.70
51693;BMP280;37777;53.066;21.638;2024-01-16T13:38:20;99412.75;;;-3.69
51693;BMP280;37777;53.066;21.638;2024-01-16T13:45:22;99405.84;;;-3.81
51693;BMP280;37777;53.066;21.638;2024-01-16T13:52:24;99417.75;;;-3.99
51693;BMP280;37777;53.066;21.638;2024-01-16T13:59:28;99420.63;;;-4.10
51693;BMP280;37777;53.066;21.638;2024-01-16T14:06:30;99435.38;;;-4.30
51693;BMP280;37777;53.066;21.638;2024-01-16T14:13:51;99444.34;;;-4.36
51693;BMP280;37777;53.066;21.638;2024-01-16T14:20:54;99457.19;;;-4.55
51693;BMP280;37777;53.066;21.638;2024-01-16T14:27:58;99473.75;;;-4.65
51693;BMP280;37777;53.066;21.638;2024-01-16T14:35:00;99491.41;;;-4.76
51693;BMP280;37777;53.066;21.638;2024-01-16T14:42:02;99512.13;;;-4.90
51693;BMP280;37777;53.066;21.638;2024-01-16T14:49:04;99529.50;;;-4.99
51693;BMP280;37777;53.066;21.638;2024-01-16T14:56:05;99537.31;;;-5.10
51693;BMP280;37777;53.066;21.638;2024-01-16T15:03:07;99551.97;;;-5.24
51693;BMP280;37777;53.066;21.638;2024-01-16T15:10:10;99571.88;;;-5.38
51693;BMP280;37777;53.066;21.638;2024-01-16T15:17:16;99562.53;;;-5.51
51693;BMP280;37777;53.066;21.638;2024-01-16T15:24:19;99582.69;;;-5.62
51693;BMP280;37777;53.066;21.638;2024-01-16T15:31:27;99583.06;;;-5.76
51693;BMP280;37777;53.066;21.638;2024-01-16T15:38:28;99601.47;;;-5.81
51693;BMP280;37777;53.066;21.638;2024-01-16T15:45:30;99600.41;;;-5.80
51693;BMP280;37777;53.066;21.638;2024-01-16T15:52:31;99618.22;;;-5.87
51693;BMP280;37777;53.066;21.638;2024-01-16T15:59:33;99639.00;;;-5.91
51693;BMP280;37777;53.066;21.638;2024-01-16T16:06:35;99646.84;;;-5.96
51693;BMP280;37777;53.066;21.638;2024-01-16T16:13:37;99654.53;;;-6.11
51693;BMP280;37777;53.066;21.638;2024-01-16T16:20:39;99664.97;;;-6.16
51693;BMP280;37777;53.066;21.638;2024-01-16T16:27:40;99665.03;;;-6.28
51693;BMP280;37777;53.066;21.638;2024-01-16T16:34:45;99670.81;;;-6.31
51693;BMP280;37777;53.066;21.638;2024-01-16T16:41:46;99684.59;;;-6.41
51693;BMP280;37777;53.066;21.638;2024-01-16T16:48:48;99685.97;;;-6.38
51693;BMP280;37777;53.066;21.638;2024-01-16T16:55:50;99700.91;;;-6.56
51693;BMP280;37777;53.066;21.638;2024-01-16T17:02:52;99698.81;;;-6.71
51693;BMP280;37777;53.066;21.638;2024-01-16T17:09:53;99710.41;;;-6.84
51693;BMP280;37777;53.066;21.638;2024-01-16T17:16:55;99720.94;;;-6.84
51693;BMP280;37777;53.066;21.638;2024-01-16T17:23:57;99726.59;;;-6.92
51693;BMP280;37777;53.066;21.638;2024-01-16T17:30:58;99728.31;;;-6.98
51693;BMP280;37777;53.066;21.638;2024-01-16T17:38:00;99734.75;;;-7.06
51693;BMP280;37777;53.066;21.638;2024-01-16T17:45:02;99741.31;;;-7.32
51693;BMP280;37777;53.066;21.638;2024-01-16T17:52:04;99743.97;;;-7.56
51693;BMP280;37777;53.066;21.638;2024-01-16T17:59:05;99754.34;;;-7.73
51693;BMP280;37777;53.066;21.638;2024-01-16T18:06:07;99758.69;;;-7.55
51693;BMP280;37777;53.066;21.638;2024-01-16T18:13:09;99761.19;;;-7.72
51693;BMP280;37777;53.066;21.638;2024-01-16T18:20:12;99769.88;;;-7.71
51693;BMP280;37777;53.066;21.638;2024-01-16T18:27:14;99784.16;;;-7.79
51693;BMP280;37777;53.066;21.638;2024-01-16T18:34:16;99789.25;;;-7.84
51693;BMP280;37777;53.066;21.638;2024-01-16T18:41:21;99804.56;;;-7.93
51693;BMP280;37777;53.066;21.638;2024-01-16T18:48:23;99812.34;;;-8.17
51693;BMP280;37777;53.066;21.638;2024-01-16T18:55:25;99806.78;;;-8.39
51693;BMP280;37777;53.066;21.638;2024-01-16T19:02:26;99825.16;;;-8.57
51693;BMP280;37777;53.066;21.638;2024-01-16T19:09:30;99827.94;;;-8.52
51693;BMP280;37777;53.066;21.638;2024-01-16T19:16:38;99834.88;;;-8.58
51693;BMP280;37777;53.066;21.638;2024-01-16T19:23:39;99851.84;;;-8.60
51693;BMP280;37777;53.066;21.638;2024-01-16T19:30:41;99856.66;;;-8.57
51693;BMP280;37777;53.066;21.638;2024-01-16T19:37:42;99857.66;;;-8.77
51693;BMP280;37777;53.066;21.638;2024-01-16T19:44:46;99863.59;;;-8.63
51693;BMP280;37777;53.066;21.638;2024-01-16T19:51:48;99877.22;;;-8.54
51693;BMP280;37777;53.066;21.638;2024-01-16T19:58:50;99877.94;;;-8.47
51693;BMP280;37777;53.066;21.638;2024-01-16T20:05:51;99893.25;;;-8.63
51693;BMP280;37777;53.066;21.638;2024-01-16T20:12:53;99903.47;;;-8.73
51693;BMP280;37777;53.066;21.638;2024-01-16T20:19:54;99907.28;;;-8.94
51693;BMP280;37777;53.066;21.638;2024-01-16T20:26:56;99914.06;;;-8.86
51693;BMP280;37777;53.066;21.638;2024-01-16T20:33:59;99928.78;;;-8.85
51693;BMP280;37777;53.066;21.638;2024-01-16T20:41:01;99931.16;;;-8.84
51693;BMP280;37777;53.066;21.638;2024-01-16T20:48:03;99932.81;;;-8.89
51693;BMP280;37777;53.066;21.638;2024-01-16T20:55:05;99939.75;;;-8.95
51693;BMP280;37777;53.066;21.638;2024-01-16T21:02:08;99932.00;;;-8.83
51693;BMP280;37777;53.066;21.638;2024-01-16T21:09:09;99923.72;;;-8.87
51693;BMP280;37777;53.066;21.638;2024-01-16T21:16:17;99924.06;;;-9.02
51693;BMP280;37777;53.066;21.638;2024-01-16T21:23:19;99934.47;;;-9.20
51693;BMP280;37777;53.066;21.638;2024-01-16T21:30:21;99938.63;;;-9.70
51693;BMP280;37777;53.066;21.638;2024-01-16T21:37:22;99943.47;;;-10.32
51693;BMP280;37777;53.066;21.638;2024-01-16T21:44:25;99939.16;;;-10.07
51693;BMP280;37777;53.066;21.638;2024-01-16T21:51:26;99931.28;;;-10.00
51693;BMP280;37777;53.066;21.638;2024-01-16T21:58:28;99929.06;;;-10.03
51693;BMP280;37777;53.066;21.638;2024-01-16T22:05:29;99940.31;;;-9.96
51693;BMP280;37777;53.066;21.638;2024-01-16T22:12:32;99924.84;;;-10.04
51693;BMP280;37777;53.066;21.638;2024-01-16T22:19:33;99928.94;;;-10.22
51693;BMP280;37777;53.066;21.638;2024-01-16T22:26:35;99910.66;;;-10.42
51693;BMP280;37777;53.066;21.638;2024-01-16T22:33:37;99922.16;;;-10.50
51693;BMP280;37777;53.066;21.638;2024-01-16T22:40:39;99940.66;;;-10.58
51693;BMP280;37777;53.066;21.638;2024-01-16T22:47:40;99920.75;;;-10.66
51693;BMP280;37777;53.066;21.638;2024-01-16T22:54:43;99926.19;;;-10.87
51693;BMP280;37777;53.066;21.638;2024-01-16T23:01:47;99932.03;;;-10.85
51693;BMP280;37777;53.066;21.638;2024-01-16T23:08:49;99922.16;;;-10.63
51693;BMP280;37777;53.066;21.638;2024-01-16T23:15:51;99921.16;;;-10.62
51693;BMP280;37777;53.066;21.638;2024-01-16T23:22:54;99908.28;;;-10.90
51693;BMP280;37777;53.066;21.638;2024-01-16T23:29:56;99903.47;;;-11.14
51693;BMP280;37777;53.066;21.638;2024-01-16T23:36:57;99904.25;;;-11.33
51693;BMP280;37777;53.066;21.638;2024-01-16T23:43:59;99902.63;;;-11.21
51693;BMP280;37777;53.066;21.638;2024-01-16T23:51:02;99907.47;;;-11.04
51693;BMP280;37777;53.066;21.638;2024-01-16T23:58:04;99907.09;;;-11.01
